createdAt,value
2022-08-17T00:00:01.791Z,94204.06
2022-08-17T00:02:56.376Z,94218.84
2022-08-17T00:05:23.466Z,94220.13
2022-08-17T00:07:50.456Z,94220.94
2022-08-17T00:10:17.407Z,94210.16
2022-08-17T00:12:44.851Z,94203.41
2022-08-17T00:15:13.546Z,94194.47
2022-08-17T00:17:42.512Z,94202.41
2022-08-17T00:20:12.108Z,94219.69
2022-08-17T00:22:39.133Z,94216.53
2022-08-17T00:25:12.059Z,94210.19
2022-08-17T00:27:39.550Z,94193.59
2022-08-17T00:30:08.685Z,94199.66
2022-08-17T00:33:14.210Z,94197.78
2022-08-17T00:35:33.031Z,94198.78
2022-08-17T00:38:00.039Z,94207.56
2022-08-17T00:40:27.288Z,94204.84
2022-08-17T00:43:28.035Z,94204.69
2022-08-17T00:45:55.108Z,94199.84
2022-08-17T00:48:29.371Z,94192.25
2022-08-17T00:51:03.092Z,94185.78
2022-08-17T00:53:33.457Z,94199.19
2022-08-17T00:56:03.225Z,94161.19
2022-08-17T00:58:36.564Z,94168.72
2022-08-17T01:01:05.274Z,94175.03
2022-08-17T01:03:33.104Z,94180.69
2022-08-17T01:06:02.634Z,94180.69
2022-08-17T01:08:31.385Z,94162.88
2022-08-17T01:11:02.295Z,94158.25
2022-08-17T01:13:41.115Z,94156.88
2022-08-17T01:16:11.713Z,94166.41
2022-08-17T01:18:39.288Z,94139.13
2022-08-17T01:21:22.766Z,94119.31
2022-08-17T01:23:49.543Z,94124.81
2022-08-17T01:26:16.648Z,94142.69
2022-08-17T01:28:54.652Z,94140.41
2022-08-17T01:31:25.238Z,94119.34
2022-08-17T01:33:52.313Z,94163.22
2022-08-17T01:36:19.824Z,94126.13
2022-08-17T01:38:46.683Z,94144.19
2022-08-17T01:41:16.476Z,94148.72
2022-08-17T01:43:52.150Z,94166.91
2022-08-17T01:46:23.719Z,94165.09
2022-08-17T01:48:51.704Z,94159.78
2022-08-17T01:51:20.038Z,94174.88
2022-08-17T01:53:54.356Z,94169.69
2022-08-17T01:56:24.421Z,94163.97
2022-08-17T01:58:52.551Z,94165.47
2022-08-17T02:01:22.089Z,94173.72
2022-08-17T02:03:53.518Z,94151.66
2022-08-17T02:06:28.411Z,94168.91
2022-08-17T02:09:02.954Z,94156.22
2022-08-17T02:11:32.344Z,94153.38
2022-08-17T02:14:03.214Z,94120.97
2022-08-17T02:16:37.668Z,94159.13
2022-08-17T02:19:07.573Z,94158.13
2022-08-17T02:21:35.236Z,94144.97
2022-08-17T02:24:03.322Z,94146.50
2022-08-17T02:26:30.164Z,94134.81
2022-08-17T02:28:57.040Z,94146.28
2022-08-17T02:31:23.838Z,94149.81
2022-08-17T02:34:00.481Z,94151.81
2022-08-17T02:36:32.028Z,94144.28
2022-08-17T02:39:02.121Z,94158.13
2022-08-17T02:41:29.023Z,94151.75
2022-08-17T02:43:55.878Z,94152.28
2022-08-17T02:46:22.749Z,94145.25
2022-08-17T02:48:49.663Z,94117.06
2022-08-17T02:51:16.605Z,94132.03
2022-08-17T02:53:43.463Z,94133.31
2022-08-17T02:56:10.423Z,94118.25
2022-08-17T02:58:37.457Z,94115.06
2022-08-17T03:01:06.623Z,94113.94
2022-08-17T03:03:34.487Z,94140.03
2022-08-17T03:06:01.888Z,94131.47
2022-08-17T03:08:29.302Z,94126.28
2022-08-17T03:10:56.534Z,94124.47
2022-08-17T03:13:23.577Z,94126.09
2022-08-17T03:15:50.721Z,94119.09
2022-08-17T03:18:24.896Z,94110.69
2022-08-17T03:20:59.179Z,94114.97
2022-08-17T03:23:27.799Z,94121.72
2022-08-17T03:25:57.457Z,94110.13
2022-08-17T03:28:25.674Z,94107.66
2022-08-17T03:30:52.905Z,94131.00
2022-08-17T03:33:20.207Z,94127.91
2022-08-17T03:35:47.537Z,94124.00
2022-08-17T03:38:15.828Z,94143.22
2022-08-17T03:40:57.104Z,94115.56
2022-08-17T03:43:28.441Z,94135.06
2022-08-17T03:46:33.842Z,94132.38
2022-08-17T03:49:19.507Z,94151.47
2022-08-17T03:52:04.911Z,94133.13
2022-08-17T03:54:50.322Z,94128.34
2022-08-17T03:57:17.135Z,94142.06
2022-08-17T03:59:45.183Z,94129.69
2022-08-17T04:02:19.168Z,94155.84
2022-08-17T04:04:46.944Z,94158.19
2022-08-17T04:07:13.870Z,94132.00
2022-08-17T04:09:40.767Z,94159.47
2022-08-17T04:12:08.000Z,94168.59
2022-08-17T04:14:52.243Z,94171.56
2022-08-17T04:17:22.981Z,94156.53
2022-08-17T04:19:49.763Z,94162.97
2022-08-17T04:22:30.869Z,94188.13
2022-08-17T04:25:03.310Z,94176.19
2022-08-17T04:27:30.076Z,94175.94
2022-08-17T04:29:56.945Z,94166.59
2022-08-17T04:32:59.370Z,94156.09
2022-08-17T04:35:10.679Z,94168.97
2022-08-17T04:37:37.489Z,94172.25
2022-08-17T04:40:27.201Z,94173.16
2022-08-17T04:43:13.376Z,94182.41
2022-08-17T04:45:55.923Z,94186.59
2022-08-17T04:48:36.477Z,94175.47
2022-08-17T04:51:12.365Z,94165.78
2022-08-17T04:53:41.679Z,94168.88
2022-08-17T04:56:11.632Z,94179.50
2022-08-17T04:58:49.881Z,94149.19
2022-08-17T05:01:23.295Z,94178.28
2022-08-17T05:03:52.346Z,94167.59
2022-08-17T05:06:19.655Z,94151.66
2022-08-17T05:08:46.505Z,94162.88
2022-08-17T05:11:13.282Z,94176.06
2022-08-17T05:13:40.210Z,94174.13
2022-08-17T05:16:09.107Z,94150.97
2022-08-17T05:18:38.784Z,94115.28
2022-08-17T05:21:06.937Z,94134.22
2022-08-17T05:23:42.874Z,94139.44
2022-08-17T05:26:25.805Z,94141.19
2022-08-17T05:28:54.627Z,94164.56
2022-08-17T05:31:24.617Z,94177.66
2022-08-17T05:33:52.053Z,94171.94
2022-08-17T05:36:43.542Z,94182.75
2022-08-17T05:39:06.664Z,94166.28
2022-08-17T05:41:33.641Z,94146.94
2022-08-17T05:44:00.427Z,94134.47
2022-08-17T05:46:39.548Z,94127.25
2022-08-17T05:49:08.121Z,94136.19
2022-08-17T05:51:50.056Z,94150.34
2022-08-17T05:54:59.839Z,94151.94
2022-08-17T05:57:54.245Z,94136.34
2022-08-17T06:00:31.885Z,94124.31
2022-08-17T06:03:27.350Z,94125.16
2022-08-17T06:06:25.281Z,94121.75
2022-08-17T06:09:35.282Z,94145.84
2022-08-17T06:12:19.753Z,94162.72
2022-08-17T06:14:55.885Z,94179.53
2022-08-17T06:17:25.201Z,94167.44
2022-08-17T06:19:59.787Z,94191.50
2022-08-17T06:22:33.375Z,94157.41
2022-08-17T06:25:05.114Z,94184.91
2022-08-17T06:27:49.010Z,94207.16
2022-08-17T06:30:57.477Z,94213.59
2022-08-17T06:33:26.734Z,94200.19
2022-08-17T06:36:09.846Z,94195.44
2022-08-17T06:38:53.310Z,94214.13
2022-08-17T06:41:29.015Z,94198.09
2022-08-17T06:44:43.693Z,94184.63
2022-08-17T06:47:28.578Z,94179.03
2022-08-17T06:50:30.961Z,94190.66
2022-08-17T06:53:04.438Z,94200.25
2022-08-17T06:56:11.061Z,94198.75
2022-08-17T06:58:41.696Z,94218.28
2022-08-17T07:01:25.247Z,94270.00
2022-08-17T07:03:59.695Z,94279.50
2022-08-17T07:06:47.518Z,94271.28
2022-08-17T07:09:23.451Z,94247.88
2022-08-17T07:11:54.761Z,94258.53
2022-08-17T07:14:36.743Z,94236.06
2022-08-17T07:17:15.727Z,94258.03
2022-08-17T07:19:45.725Z,94257.75
2022-08-17T07:22:53.533Z,94239.47
2022-08-17T07:25:26.503Z,94273.03
2022-08-17T07:28:00.432Z,94251.06
2022-08-17T07:30:31.651Z,94244.75
2022-08-17T07:33:12.686Z,94268.66
2022-08-17T07:35:44.346Z,94286.53
2022-08-17T07:38:25.788Z,94285.00
2022-08-17T07:41:02.785Z,94287.88
2022-08-17T07:43:38.102Z,94282.94
2022-08-17T07:46:37.339Z,94298.22
2022-08-17T07:49:05.065Z,94268.13
2022-08-17T07:51:36.409Z,94296.53
2022-08-17T07:54:22.345Z,94295.63
2022-08-17T07:56:50.923Z,94310.13
2022-08-17T07:59:40.737Z,94303.06
2022-08-17T08:02:38.893Z,94292.44
2022-08-17T08:05:50.097Z,94293.94
2022-08-17T08:08:24.355Z,94342.28
2022-08-17T08:11:29.768Z,94300.56
2022-08-17T08:14:20.671Z,94302.34
2022-08-17T08:17:07.362Z,94277.91
2022-08-17T08:19:36.404Z,94292.47
2022-08-17T08:22:12.054Z,94325.19
2022-08-17T08:24:51.447Z,94285.16
2022-08-17T08:27:49.485Z,94316.25
2022-08-17T08:30:21.311Z,94308.88
2022-08-17T08:32:51.345Z,94308.22
2022-08-17T08:35:32.434Z,94284.03
2022-08-17T08:38:13.797Z,94283.28
2022-08-17T08:41:01.872Z,94284.97
2022-08-17T08:43:52.854Z,94281.78
2022-08-17T08:46:48.300Z,94283.34
2022-08-17T08:49:29.819Z,94293.19
2022-08-17T08:52:25.834Z,94293.97
2022-08-17T08:55:15.631Z,94311.28
2022-08-17T08:57:56.985Z,94289.88
2022-08-17T09:00:26.021Z,94299.50
2022-08-17T09:02:58.686Z,94293.63
2022-08-17T09:05:49.699Z,94303.41
2022-08-17T09:08:44.084Z,94281.13
2022-08-17T09:11:24.614Z,94290.91
2022-08-17T09:14:00.781Z,94317.53
2022-08-17T09:16:36.875Z,94289.84
2022-08-17T09:19:16.082Z,94290.06
2022-08-17T09:21:52.632Z,94321.34
2022-08-17T09:24:31.350Z,94303.06
2022-08-17T09:27:03.587Z,94285.72
2022-08-17T09:29:35.292Z,94285.09
2022-08-17T09:32:14.653Z,94279.28
2022-08-17T09:34:51.008Z,94303.34
2022-08-17T09:37:43.801Z,94310.00
2022-08-17T09:40:33.731Z,94292.44
2022-08-17T09:43:08.698Z,94309.44
2022-08-17T09:45:39.762Z,94303.66
2022-08-17T09:48:14.910Z,94295.69
2022-08-17T09:51:05.666Z,94299.53
2022-08-17T09:53:36.366Z,94293.44
2022-08-17T09:56:10.002Z,94277.19
2022-08-17T09:59:05.081Z,94292.50
2022-08-17T10:01:51.630Z,94315.84
2022-08-17T10:04:47.824Z,94300.41
2022-08-17T10:07:31.747Z,94327.38
2022-08-17T10:10:32.508Z,94320.00
2022-08-17T10:13:35.849Z,94298.53
2022-08-17T10:16:23.155Z,94317.66
2022-08-17T10:19:08.859Z,94293.94
2022-08-17T10:22:01.385Z,94306.78
2022-08-17T10:25:22.183Z,94279.81
2022-08-17T10:28:01.962Z,94335.56
2022-08-17T10:30:33.384Z,94287.50
2022-08-17T10:33:04.803Z,94303.38
2022-08-17T10:35:34.039Z,94301.69
2022-08-17T10:38:16.195Z,94305.78
2022-08-17T10:40:59.320Z,94309.53
2022-08-17T10:44:37.906Z,94309.78
2022-08-17T10:47:03.241Z,94272.56
2022-08-17T10:49:34.065Z,94301.69
2022-08-17T10:52:22.877Z,94293.69
2022-08-17T10:54:58.006Z,94272.09
2022-08-17T10:57:34.646Z,94290.09
2022-08-17T11:00:18.021Z,94309.34
2022-08-17T11:02:55.456Z,94299.00
2022-08-17T11:05:45.550Z,94303.66
2022-08-17T11:08:38.859Z,94281.34
2022-08-17T11:11:26.516Z,94297.13
2022-08-17T11:14:15.003Z,94305.06
2022-08-17T11:17:06.582Z,94302.88
2022-08-17T11:19:59.259Z,94305.63
2022-08-17T11:22:31.321Z,94289.63
2022-08-17T11:25:20.150Z,94288.91
2022-08-17T11:27:53.765Z,94283.69
2022-08-17T11:30:48.935Z,94264.09
2022-08-17T11:33:58.876Z,94296.59
2022-08-17T11:36:37.696Z,94255.06
2022-08-17T11:39:16.775Z,94269.94
2022-08-17T11:41:55.754Z,94303.72
2022-08-17T11:44:25.647Z,94287.09
2022-08-17T11:48:09.417Z,94297.13
2022-08-17T11:51:23.562Z,94288.41
2022-08-17T11:53:50.263Z,94305.22
2022-08-17T11:56:41.923Z,94295.28
2022-08-17T11:59:30.764Z,94289.56
2022-08-17T12:01:57.758Z,94294.41
2022-08-17T12:04:31.900Z,94296.38
2022-08-17T12:07:13.261Z,94305.00
2022-08-17T12:09:45.706Z,94303.94
2022-08-17T12:12:20.354Z,94310.03
2022-08-17T12:15:11.412Z,94306.50
2022-08-17T12:17:40.767Z,94298.47
2022-08-17T12:20:23.527Z,94286.50
2022-08-17T12:23:01.231Z,94291.97
2022-08-17T12:25:42.560Z,94294.13
2022-08-17T12:28:26.315Z,94300.53
2022-08-17T12:30:53.721Z,94293.06
2022-08-17T12:33:28.655Z,94302.22
2022-08-17T12:36:03.312Z,94289.44
2022-08-17T12:38:36.194Z,94298.41
2022-08-17T12:41:24.206Z,94291.28
2022-08-17T12:44:22.305Z,94268.75
2022-08-17T12:47:02.145Z,94277.47
2022-08-17T12:49:32.913Z,94273.50
2022-08-17T12:52:12.477Z,94267.91
2022-08-17T12:54:46.939Z,94260.94
2022-08-17T12:57:24.264Z,94277.91
2022-08-17T12:59:59.115Z,94267.50
2022-08-17T13:02:39.753Z,94271.41
2022-08-17T13:05:14.569Z,94268.91
2022-08-17T13:07:42.779Z,94270.94
2022-08-17T13:10:19.269Z,94268.16
2022-08-17T13:12:46.240Z,94284.31
2022-08-17T13:15:21.647Z,94272.34
2022-08-17T13:18:04.745Z,94275.16
2022-08-17T13:20:31.919Z,94275.97
2022-08-17T13:23:01.354Z,94266.81
2022-08-17T13:25:29.757Z,94283.00
2022-08-17T13:27:56.812Z,94277.19
2022-08-17T13:30:33.301Z,94248.38
2022-08-17T13:33:20.729Z,94256.22
2022-08-17T13:36:07.198Z,94259.72
2022-08-17T13:38:49.760Z,94271.44
2022-08-17T13:41:37.802Z,94268.28
2022-08-17T13:44:31.074Z,94264.00
2022-08-17T13:46:59.658Z,94247.84
2022-08-17T13:49:33.894Z,94266.22
2022-08-17T13:52:52.299Z,94245.97
2022-08-17T13:55:22.704Z,94209.00
2022-08-17T13:58:03.630Z,94232.31
2022-08-17T14:00:36.441Z,94221.72
2022-08-17T14:03:05.608Z,94201.25
2022-08-17T14:05:33.884Z,94217.72
2022-08-17T14:08:06.683Z,94203.47
2022-08-17T14:10:36.465Z,94219.09
2022-08-17T14:13:04.412Z,94199.75
2022-08-17T14:15:56.041Z,94210.84
2022-08-17T14:18:37.509Z,94198.13
2022-08-17T14:21:08.470Z,94208.47
2022-08-17T14:23:36.709Z,94201.50
2022-08-17T14:26:04.671Z,94197.09
2022-08-17T14:28:32.157Z,94201.66
2022-08-17T14:31:00.785Z,94179.22
2022-08-17T14:33:28.834Z,94186.31
2022-08-17T14:35:55.950Z,94188.72
2022-08-17T14:38:22.805Z,94170.88
2022-08-17T14:40:49.945Z,94177.75
2022-08-17T14:43:18.000Z,94173.00
2022-08-17T14:45:44.893Z,94167.63
2022-08-17T14:48:12.094Z,94169.88
2022-08-17T14:50:42.211Z,94169.69
2022-08-17T14:53:11.575Z,94159.09
2022-08-17T14:55:40.792Z,94177.38
2022-08-17T14:58:08.819Z,94177.72
2022-08-17T15:00:35.809Z,94172.44
2022-08-17T15:03:03.424Z,94155.94
2022-08-17T15:05:36.731Z,94153.34
2022-08-17T15:08:05.631Z,94155.19
2022-08-17T15:10:33.269Z,94162.50
2022-08-17T15:13:00.565Z,94171.53
2022-08-17T15:15:28.564Z,94180.34
2022-08-17T15:17:55.835Z,94190.63
2022-08-17T15:20:28.130Z,94182.81
2022-08-17T15:22:57.592Z,94160.44
2022-08-17T15:25:30.294Z,94174.88
2022-08-17T15:27:57.445Z,94179.75
2022-08-17T15:30:26.046Z,94190.69
2022-08-17T15:32:55.175Z,94159.25
2022-08-17T15:35:27.737Z,94167.06
2022-08-17T15:38:11.680Z,94162.97
2022-08-17T15:40:42.762Z,94171.28
2022-08-17T15:43:27.278Z,94167.75
2022-08-17T15:46:01.944Z,94189.94
2022-08-17T15:48:41.479Z,94176.69
2022-08-17T15:51:11.356Z,94176.91
2022-08-17T15:53:40.135Z,94172.94
2022-08-17T15:56:07.256Z,94154.16
2022-08-17T15:58:35.567Z,94138.19
2022-08-17T16:01:14.869Z,94146.78
2022-08-17T16:04:03.924Z,94147.41
2022-08-17T16:06:32.325Z,94151.72
2022-08-17T16:09:00.455Z,94159.22
2022-08-17T16:11:27.281Z,94155.56
2022-08-17T16:13:55.100Z,94183.84
2022-08-17T16:16:23.776Z,94157.22
2022-08-17T16:18:54.748Z,94136.00
2022-08-17T16:21:27.077Z,94149.47
2022-08-17T16:24:00.801Z,94153.47
2022-08-17T16:26:29.724Z,94155.00
2022-08-17T16:28:59.112Z,94151.63
2022-08-17T16:31:26.131Z,94155.38
2022-08-17T16:34:03.768Z,94148.25
2022-08-17T16:36:41.527Z,94143.66
2022-08-17T16:39:20.813Z,94142.94
2022-08-17T16:41:47.718Z,94139.41
2022-08-17T16:44:19.117Z,94154.03
2022-08-17T16:46:48.217Z,94155.91
2022-08-17T16:49:34.453Z,94159.03
2022-08-17T16:52:07.192Z,94133.72
2022-08-17T16:54:35.453Z,94138.09
2022-08-17T16:57:05.141Z,94128.75
2022-08-17T16:59:41.840Z,94133.28
2022-08-17T17:02:16.975Z,94146.66
2022-08-17T17:04:53.356Z,94142.38
2022-08-17T17:07:32.282Z,94147.91
2022-08-17T17:09:59.969Z,94135.53
2022-08-17T17:13:01.273Z,94141.28
2022-08-17T17:15:21.975Z,94141.03
2022-08-17T17:17:50.609Z,94127.78
2022-08-17T17:20:29.013Z,94125.53
2022-08-17T17:23:19.128Z,94122.91
2022-08-17T17:26:32.283Z,94120.47
2022-08-17T17:29:11.058Z,94115.31
2022-08-17T17:31:55.025Z,94115.69
2022-08-17T17:34:22.836Z,94123.25
2022-08-17T17:36:54.163Z,94101.84
2022-08-17T17:39:29.696Z,94131.00
2022-08-17T17:41:59.621Z,94104.94
2022-08-17T17:44:33.162Z,94118.59
2022-08-17T17:47:03.384Z,94114.66
2022-08-17T17:49:35.179Z,94110.22
2022-08-17T17:52:26.123Z,94104.66
2022-08-17T17:55:16.813Z,94090.56
2022-08-17T17:57:58.910Z,94111.63
2022-08-17T18:00:30.585Z,94115.03
2022-08-17T18:03:31.170Z,94115.06
2022-08-17T18:06:22.802Z,94115.19
2022-08-17T18:09:10.369Z,94105.09
2022-08-17T18:12:00.644Z,94099.59
2022-08-17T18:15:01.699Z,94100.16
2022-08-17T18:17:29.908Z,94098.75
2022-08-17T18:19:57.434Z,94084.47
2022-08-17T18:22:25.342Z,94088.34
2022-08-17T18:24:58.111Z,94096.16
2022-08-17T18:27:33.714Z,94072.88
2022-08-17T18:30:21.867Z,94055.84
2022-08-17T18:32:48.730Z,94042.69
2022-08-17T18:35:18.554Z,94051.91
2022-08-17T18:37:49.956Z,94050.03
2022-08-17T18:40:17.084Z,94069.31
2022-08-17T18:42:50.618Z,94076.88
2022-08-17T18:45:38.944Z,94077.44
2022-08-17T18:48:17.999Z,94073.94
2022-08-17T18:50:45.282Z,94055.00
2022-08-17T18:53:26.783Z,94044.78
2022-08-17T18:56:16.946Z,94038.38
2022-08-17T18:58:52.158Z,94029.59
2022-08-17T19:01:21.733Z,94030.59
2022-08-17T19:04:15.710Z,94042.66
2022-08-17T19:06:42.981Z,94045.84
2022-08-17T19:09:33.945Z,94050.34
2022-08-17T19:12:08.422Z,94045.22
2022-08-17T19:14:36.003Z,94048.53
2022-08-17T19:17:16.543Z,94056.56
2022-08-17T19:19:56.279Z,94072.75
2022-08-17T19:23:02.269Z,94083.19
2022-08-17T19:25:36.309Z,94097.03
2022-08-17T19:28:12.683Z,94096.91
2022-08-17T19:30:54.740Z,94101.88
2022-08-17T19:33:22.039Z,94111.41
2022-08-17T19:36:01.215Z,94099.38
2022-08-17T19:38:46.780Z,94109.16
2022-08-17T19:41:28.244Z,94100.88
2022-08-17T19:43:57.932Z,94107.59
2022-08-17T19:46:48.715Z,94113.41
2022-08-17T19:49:33.537Z,94110.19
2022-08-17T19:52:24.376Z,94099.44
2022-08-17T19:54:57.092Z,94104.50
2022-08-17T19:57:43.988Z,94096.88
2022-08-17T20:00:15.536Z,94085.72
2022-08-17T20:03:16.672Z,94087.59
2022-08-17T20:06:11.951Z,94092.56
2022-08-17T20:08:49.013Z,94079.91
2022-08-17T20:11:21.184Z,94093.28
2022-08-17T20:13:56.224Z,94094.44
2022-08-17T20:16:24.675Z,94093.88
2022-08-17T20:19:19.334Z,94100.00
2022-08-17T20:21:48.738Z,94118.03
2022-08-17T20:24:22.910Z,94112.09
2022-08-17T20:26:58.703Z,94108.06
2022-08-17T20:29:55.175Z,94097.69
2022-08-17T20:32:26.900Z,94105.81
2022-08-17T20:35:09.074Z,94094.72
2022-08-17T20:37:43.222Z,94097.78
2022-08-17T20:40:10.050Z,94089.53
2022-08-17T20:42:37.257Z,94096.75
2022-08-17T20:45:23.374Z,94065.13
2022-08-17T20:48:27.232Z,94062.66
2022-08-17T20:50:52.731Z,94035.59
2022-08-17T20:53:47.585Z,94044.34
2022-08-17T20:56:43.494Z,94046.16
2022-08-17T20:59:25.593Z,94050.16
2022-08-17T21:02:17.548Z,94051.22
2022-08-17T21:04:46.428Z,94046.66
2022-08-17T21:07:43.010Z,94075.22
2022-08-17T21:10:13.979Z,94052.09
2022-08-17T21:12:44.447Z,94068.88
2022-08-17T21:15:48.628Z,94043.19
2022-08-17T21:18:38.813Z,94027.84
2022-08-17T21:21:08.242Z,94061.28
2022-08-17T21:24:14.777Z,94052.00
2022-08-17T21:27:06.567Z,94042.97
2022-08-17T21:29:39.683Z,94051.63
2022-08-17T21:32:09.030Z,94062.72
2022-08-17T21:34:43.256Z,94066.69
2022-08-17T21:37:18.893Z,94067.91
2022-08-17T21:39:51.963Z,94071.94
2022-08-17T21:42:25.715Z,94069.47
2022-08-17T21:44:58.048Z,94060.91
2022-08-17T21:47:28.233Z,94054.88
2022-08-17T21:50:13.219Z,94065.81
2022-08-17T21:52:40.563Z,94076.84
2022-08-17T21:55:17.867Z,94064.78
2022-08-17T21:57:53.052Z,94071.56
2022-08-17T22:00:33.073Z,94070.09
2022-08-17T22:03:07.024Z,94075.41
2022-08-17T22:05:39.931Z,94071.75
2022-08-17T22:08:19.615Z,94067.56
2022-08-17T22:10:49.132Z,94071.91
2022-08-17T22:13:19.744Z,94064.72
2022-08-17T22:15:49.782Z,94053.63
2022-08-17T22:18:25.515Z,94073.84
2022-08-17T22:20:56.469Z,94051.09
2022-08-17T22:23:44.233Z,94068.34
2022-08-17T22:26:14.083Z,94068.91
2022-08-17T22:28:46.227Z,94070.84
2022-08-17T22:31:24.785Z,94083.81
2022-08-17T22:34:09.776Z,94080.16
2022-08-17T22:36:38.835Z,94067.59
2022-08-17T22:39:11.551Z,94098.00
2022-08-17T22:41:50.573Z,94101.72
2022-08-17T22:44:23.505Z,94116.44
2022-08-17T22:46:58.748Z,94135.56
2022-08-17T22:49:54.017Z,94110.41
2022-08-17T22:52:56.068Z,94119.44
2022-08-17T22:55:42.424Z,94116.78
2022-08-17T22:58:37.252Z,94146.94
2022-08-17T23:01:25.614Z,94157.72
2022-08-17T23:03:56.882Z,94163.03
2022-08-17T23:06:24.415Z,94177.50
2022-08-17T23:08:56.827Z,94198.16
2022-08-17T23:11:47.814Z,94190.38
2022-08-17T23:14:15.735Z,94216.69
2022-08-17T23:16:42.739Z,94208.06
2022-08-17T23:19:12.369Z,94209.22
2022-08-17T23:21:39.737Z,94251.16
2022-08-17T23:24:08.933Z,94222.56
2022-08-17T23:26:43.764Z,94267.31
2022-08-17T23:29:11.146Z,94246.13
2022-08-17T23:31:40.954Z,94270.84
2022-08-17T23:34:11.793Z,94262.16
2022-08-17T23:36:38.944Z,94287.31
2022-08-17T23:39:07.063Z,94290.22
2022-08-17T23:41:39.956Z,94288.28
2022-08-17T23:44:07.721Z,94313.69
2022-08-17T23:46:35.019Z,94265.97
2022-08-17T23:49:02.007Z,94293.16
2022-08-17T23:51:34.656Z,94281.44
2022-08-17T23:54:11.713Z,94291.53
2022-08-17T23:56:56.511Z,94301.31
2022-08-17T23:59:23.757Z,94325.00
